sensor_id;sensor_type;location;lat;lon;timestamp;pressure;altitude;pressure_sealevel;temperature;humidity
18918;BME280;9591;52.742;13.650;2024-03-23T00:51:41;100259.47;;;19.19;44.55
18918;BME280;9591;52.742;13.650;2024-03-23T00:54:25;100265.28;;;19.13;44.82
18918;BME280;9591;52.742;13.650;2024-03-23T00:57:11;100257.13;;;19.15;44.99
18918;BME280;9591;52.742;13.650;2024-03-23T00:59:56;100257.31;;;19.01;45.23
18918;BME280;9591;52.742;13.650;2024-03-23T01:02:42;100267.34;;;19.10;45.12
18918;BME280;9591;52.742;13.650;2024-03-23T01:05:26;100252.84;;;19.12;44.97
18918;BME280;9591;52.742;13.650;2024-03-23T01:08:16;100253.47;;;19.51;44.17
18918;BME280;9591;52.742;13.650;2024-03-23T01:11:02;100244.91;;;19.11;44.71
18918;BME280;9591;52.742;13.650;2024-03-23T01:13:50;100246.09;;;19.07;45.13
18918;BME280;9591;52.742;13.650;2024-03-23T01:16:35;100241.69;;;18.94;45.62
18918;BME280;9591;52.742;13.650;2024-03-23T01:19:20;100237.34;;;19.05;45.34
18918;BME280;9591;52.742;13.650;2024-03-23T01:22:05;100239.06;;;19.17;45.11
18918;BME280;9591;52.742;13.650;2024-03-23T01:24:58;100245.56;;;19.25;44.70
18918;BME280;9591;52.742;13.650;2024-03-23T01:27:43;100243.50;;;19.29;44.51
18918;BME280;9591;52.742;13.650;2024-03-23T01:30:32;100242.16;;;19.23;44.77
18918;BME280;9591;52.742;13.650;2024-03-23T01:33:17;100230.44;;;19.24;44.91
18918;BME280;9591;52.742;13.650;2024-03-23T01:36:03;100227.59;;;19.15;45.01
18918;BME280;9591;52.742;13.650;2024-03-23T01:38:48;100220.72;;;18.99;45.14
18918;BME280;9591;52.742;13.650;2024-03-23T01:41:38;100213.03;;;18.95;45.49
18918;BME280;9591;52.742;13.650;2024-03-23T01:44:28;100207.53;;;18.96;45.53
18918;BME280;9591;52.742;13.650;2024-03-23T01:47:16;100205.19;;;18.92;45.44
18918;BME280;9591;52.742;13.650;2024-03-23T01:50:02;100194.47;;;18.92;45.47
18918;BME280;9591;52.742;13.650;2024-03-23T01:52:50;100188.28;;;19.03;45.12
18918;BME280;9591;52.742;13.650;2024-03-23T01:55:35;100187.66;;;18.99;45.31
18918;BME280;9591;52.742;13.650;2024-03-23T01:58:28;100188.03;;;18.94;45.34
18918;BME280;9591;52.742;13.650;2024-03-23T02:01:13;100171.81;;;18.72;45.99
18918;BME280;9591;52.742;13.650;2024-03-23T02:03:59;100178.50;;;18.90;45.65
18918;BME280;9591;52.742;13.650;2024-03-23T02:06:44;100172.63;;;18.61;46.25
18918;BME280;9591;52.742;13.650;2024-03-23T02:09:33;100168.59;;;19.26;44.79
18918;BME280;9591;52.742;13.650;2024-03-23T02:12:18;100157.81;;;19.15;44.76
18918;BME280;9591;52.742;13.650;2024-03-23T02:15:19;100152.66;;;19.01;45.18
18918;BME280;9591;52.742;13.650;2024-03-23T02:18:04;100152.66;;;19.01;45.18
18918;BME280;9591;52.742;13.650;2024-03-23T02:20:49;100161.06;;;18.96;45.42
18918;BME280;9591;52.742;13.650;2024-03-23T02:23:38;100157.25;;;18.87;45.72
18918;BME280;9591;52.742;13.650;2024-03-23T02:26:24;100154.38;;;19.02;45.43
18918;BME280;9591;52.742;13.650;2024-03-23T02:29:08;100151.69;;;19.02;45.51
18918;BME280;9591;52.742;13.650;2024-03-23T02:31:55;100139.97;;;18.91;45.81
18918;BME280;9591;52.742;13.650;2024-03-23T02:34:41;100137.28;;;18.91;45.60
18918;BME280;9591;52.742;13.650;2024-03-23T02:37:26;100135.09;;;18.96;45.66
18918;BME280;9591;52.742;13.650;2024-03-23T02:40:16;100133.03;;;19.11;45.29
18918;BME280;9591;52.742;13.650;2024-03-23T02:43:01;100134.41;;;19.06;45.35
18918;BME280;9591;52.742;13.650;2024-03-23T02:45:50;100134.25;;;19.07;44.95
18918;BME280;9591;52.742;13.650;2024-03-23T02:48:34;100132.84;;;19.37;44.31
18918;BME280;9591;52.742;13.650;2024-03-23T02:51:20;100127.81;;;19.21;45.00
18918;BME280;9591;52.742;13.650;2024-03-23T02:54:06;100120.91;;;18.83;45.85
18918;BME280;9591;52.742;13.650;2024-03-23T02:56:52;100119.88;;;18.73;45.98
18918;BME280;9591;52.742;13.650;2024-03-23T02:59:41;100110.53;;;18.79;46.03
18918;BME280;9591;52.742;13.650;2024-03-23T03:02:25;100103.50;;;18.65;46.12
18918;BME280;9591;52.742;13.650;2024-03-23T03:05:12;100112.75;;;18.85;46.08
18918;BME280;9591;52.742;13.650;2024-03-23T03:08:03;100118.72;;;18.88;45.83
18918;BME280;9591;52.742;13.650;2024-03-23T03:10:49;100113.78;;;19.06;45.12
18918;BME280;9591;52.742;13.650;2024-03-23T03:13:35;100114.34;;;18.87;45.40
18918;BME280;9591;52.742;13.650;2024-03-23T03:16:21;100111.22;;;19.16;44.56
18918;BME280;9591;52.742;13.650;2024-03-23T03:19:07;100107.56;;;18.71;45.62
18918;BME280;9591;52.742;13.650;2024-03-23T03:21:54;100102.88;;;18.61;46.00
18918;BME280;9591;52.742;13.650;2024-03-23T03:24:38;100104.25;;;18.67;46.00
18918;BME280;9591;52.742;13.650;2024-03-23T03:27:24;100101.19;;;18.60;46.03
18918;BME280;9591;52.742;13.650;2024-03-23T03:30:13;100106.44;;;18.62;45.87
18918;BME280;9591;52.742;13.650;2024-03-23T03:32:59;100096.38;;;18.53;46.18
18918;BME280;9591;52.742;13.650;2024-03-23T03:35:45;100095.16;;;18.57;46.26
18918;BME280;9591;52.742;13.650;2024-03-23T03:38:34;100084.19;;;18.60;45.68
18918;BME280;9591;52.742;13.650;2024-03-23T03:41:20;100072.88;;;18.91;44.65
18918;BME280;9591;52.742;13.650;2024-03-23T03:44:05;100073.34;;;18.85;45.10
18918;BME280;9591;52.742;13.650;2024-03-23T03:46:51;100078.44;;;18.77;44.94
18918;BME280;9591;52.742;13.650;2024-03-23T03:49:37;100083.06;;;18.75;44.58
18918;BME280;9591;52.742;13.650;2024-03-23T03:52:21;100065.28;;;18.50;44.25
18918;BME280;9591;52.742;13.650;2024-03-23T03:55:18;100084.91;;;18.27;45.27
18918;BME280;9591;52.742;13.650;2024-03-23T03:58:03;100083.19;;;18.26;45.40
18918;BME280;9591;52.742;13.650;2024-03-23T04:00:52;100075.66;;;18.31;45.49
18918;BME280;9591;52.742;13.650;2024-03-23T04:03:42;100070.59;;;18.39;45.49
18918;BME280;9591;52.742;13.650;2024-03-23T04:06:29;100061.28;;;18.32;45.62
18918;BME280;9591;52.742;13.650;2024-03-23T04:09:14;100054.72;;;18.36;45.08
18918;BME280;9591;52.742;13.650;2024-03-23T04:11:59;100053.78;;;18.13;45.52
18918;BME280;9591;52.742;13.650;2024-03-23T04:14:45;100062.25;;;18.31;44.99
18918;BME280;9591;52.742;13.650;2024-03-23T04:17:33;100048.44;;;18.13;45.31
18918;BME280;9591;52.742;13.650;2024-03-23T04:20:20;100046.94;;;18.09;45.59
18918;BME280;9591;52.742;13.650;2024-03-23T04:23:05;100049.50;;;18.11;45.50
18918;BME280;9591;52.742;13.650;2024-03-23T04:25:51;100051.13;;;18.13;45.47
18918;BME280;9591;52.742;13.650;2024-03-23T04:28:38;100044.28;;;18.20;45.39
18918;BME280;9591;52.742;13.650;2024-03-23T04:31:27;100048.84;;;18.31;44.88
18918;BME280;9591;52.742;13.650;2024-03-23T04:34:13;100045.84;;;18.35;44.91
18918;BME280;9591;52.742;13.650;2024-03-23T04:37:03;100055.34;;;18.40;44.71
18918;BME280;9591;52.742;13.650;2024-03-23T04:39:49;100047.56;;;18.60;44.50
18918;BME280;9591;52.742;13.650;2024-03-23T04:42:34;100028.13;;;18.57;44.15
18918;BME280;9591;52.742;13.650;2024-03-23T04:45:21;100027.56;;;18.64;43.87
18918;BME280;9591;52.742;13.650;2024-03-23T04:48:07;100022.22;;;18.64;43.84
18918;BME280;9591;52.742;13.650;2024-03-23T04:50:58;100011.53;;;18.52;44.30
18918;BME280;9591;52.742;13.650;2024-03-23T04:53:49;100022.22;;;18.64;44.24
18918;BME280;9591;52.742;13.650;2024-03-23T04:56:35;100022.50;;;18.49;44.48
18918;BME280;9591;52.742;13.650;2024-03-23T04:59:21;100018.78;;;18.62;44.18
18918;BME280;9591;52.742;13.650;2024-03-23T05:02:06;100010.44;;;18.54;44.51
18918;BME280;9591;52.742;13.650;2024-03-23T05:04:52;100008.72;;;18.77;43.68
18918;BME280;9591;52.742;13.650;2024-03-23T05:07:38;100013.47;;;18.74;43.54
18918;BME280;9591;52.742;13.650;2024-03-23T05:10:28;100010.78;;;18.74;43.82
18918;BME280;9591;52.742;13.650;2024-03-23T05:13:17;99992.66;;;18.99;43.16
18918;BME280;9591;52.742;13.650;2024-03-23T05:16:05;99996.75;;;18.70;42.98
18918;BME280;9591;52.742;13.650;2024-03-23T05:18:51;99997.38;;;18.50;43.66
18918;BME280;9591;52.742;13.650;2024-03-23T05:21:35;99996.06;;;18.20;44.53
18918;BME280;9591;52.742;13.650;2024-03-23T05:24:24;100004.03;;;18.33;43.85
18918;BME280;9591;52.742;13.650;2024-03-23T05:27:17;99986.13;;;18.33;43.75
18918;BME280;9591;52.742;13.650;2024-03-23T05:30:02;99992.72;;;18.41;43.68
18918;BME280;9591;52.742;13.650;2024-03-23T05:32:50;99984.06;;;18.37;43.83
18918;BME280;9591;52.742;13.650;2024-03-23T05:35:35;99982.09;;;18.63;43.20
18918;BME280;9591;52.742;13.650;2024-03-23T05:38:21;99993.13;;;18.47;43.52
18918;BME280;9591;52.742;13.650;2024-03-23T05:41:06;99990.25;;;18.61;43.15
18918;BME280;9591;52.742;13.650;2024-03-23T05:43:56;100001.41;;;18.44;43.70
18918;BME280;9591;52.742;13.650;2024-03-23T05:46:43;99993.38;;;18.20;44.29
18918;BME280;9591;52.742;13.650;2024-03-23T05:49:41;99982.47;;;18.34;44.03
18918;BME280;9591;52.742;13.650;2024-03-23T05:52:29;99982.38;;;18.47;43.90
18918;BME280;9591;52.742;13.650;2024-03-23T05:55:14;99976.56;;;18.53;43.98
18918;BME280;9591;52.742;13.650;2024-03-23T05:58:00;99954.25;;;18.53;43.82
18918;BME280;9591;52.742;13.650;2024-03-23T06:00:49;99964.44;;;18.60;43.30
18918;BME280;9591;52.742;13.650;2024-03-23T06:03:38;99967.59;;;18.30;44.49
18918;BME280;9591;52.742;13.650;2024-03-23T06:06:23;99959.84;;;18.50;43.79
18918;BME280;9591;52.742;13.650;2024-03-23T06:09:09;99952.53;;;18.41;44.04
18918;BME280;9591;52.742;13.650;2024-03-23T06:11:55;99967.97;;;18.37;44.15
18918;BME280;9591;52.742;13.650;2024-03-23T06:14:40;99956.63;;;18.33;44.21
18918;BME280;9591;52.742;13.650;2024-03-23T06:17:27;99950.31;;;18.34;44.40
18918;BME280;9591;52.742;13.650;2024-03-23T06:20:16;99946.03;;;18.32;44.30
18918;BME280;9591;52.742;13.650;2024-03-23T06:23:01;99934.69;;;18.28;44.21
18918;BME280;9591;52.742;13.650;2024-03-23T06:25:50;99929.09;;;18.66;43.54
18918;BME280;9591;52.742;13.650;2024-03-23T06:28:36;99926.53;;;18.65;43.60
18918;BME280;9591;52.742;13.650;2024-03-23T06:31:24;99922.94;;;18.53;43.89
18918;BME280;9591;52.742;13.650;2024-03-23T06:34:10;99927.81;;;18.59;43.61
18918;BME280;9591;52.742;13.650;2024-03-23T06:36:59;99923.84;;;18.65;43.65
18918;BME280;9591;52.742;13.650;2024-03-23T06:39:49;99923.00;;;18.98;43.01
18918;BME280;9591;52.742;13.650;2024-03-23T06:42:35;99920.09;;;18.79;43.18
18918;BME280;9591;52.742;13.650;2024-03-23T06:45:20;99918.50;;;18.98;42.45
18918;BME280;9591;52.742;13.650;2024-03-23T06:48:09;99908.63;;;18.88;42.80
18918;BME280;9591;52.742;13.650;2024-03-23T06:50:59;99919.97;;;18.91;42.93
18918;BME280;9591;52.742;13.650;2024-03-23T06:53:45;99904.59;;;18.82;43.14
18918;BME280;9591;52.742;13.650;2024-03-23T06:56:55;99912.03;;;18.67;43.64
18918;BME280;9591;52.742;13.650;2024-03-23T06:59:41;99901.06;;;18.82;43.54
18918;BME280;9591;52.742;13.650;2024-03-23T07:02:28;99900.56;;;18.88;43.00
18918;BME280;9591;52.742;13.650;2024-03-23T07:05:14;99899.06;;;19.17;42.26
18918;BME280;9591;52.742;13.650;2024-03-23T07:08:02;99895.56;;;18.61;43.77
18918;BME280;9591;52.742;13.650;2024-03-23T07:10:52;99892.53;;;18.77;43.05
18918;BME280;9591;52.742;13.650;2024-03-23T07:13:38;99879.47;;;18.61;43.52
18918;BME280;9591;52.742;13.650;2024-03-23T07:16:27;99878.38;;;18.75;43.01
18918;BME280;9591;52.742;13.650;2024-03-23T07:19:13;99868.38;;;18.88;42.62
18918;BME280;9591;52.742;13.650;2024-03-23T07:22:02;99870.84;;;19.34;42.17
18918;BME280;9591;52.742;13.650;2024-03-23T07:24:52;99881.16;;;19.07;42.37
18918;BME280;9591;52.742;13.650;2024-03-23T07:27:36;99881.34;;;18.14;44.59
18918;BME280;9591;52.742;13.650;2024-03-23T07:30:23;99878.53;;;18.16;44.38
18918;BME280;9591;52.742;13.650;2024-03-23T07:33:08;99890.50;;;18.34;43.26
18918;BME280;9591;52.742;13.650;2024-03-23T07:35:53;99891.59;;;17.85;43.75
18918;BME280;9591;52.742;13.650;2024-03-23T07:38:41;99879.16;;;18.42;43.50
18918;BME280;9591;52.742;13.650;2024-03-23T07:41:29;99876.56;;;18.64;42.18
18918;BME280;9591;52.742;13.650;2024-03-23T07:44:30;99881.50;;;18.57;41.88
18918;BME280;9591;52.742;13.650;2024-03-23T07:47:18;99874.13;;;18.72;41.97
18918;BME280;9591;52.742;13.650;2024-03-23T07:50:04;99877.28;;;18.77;41.20
18918;BME280;9591;52.742;13.650;2024-03-23T07:52:53;99863.38;;;18.94;41.55
18918;BME280;9591;52.742;13.650;2024-03-23T07:55:41;99867.78;;;18.73;42.42
18918;BME280;9591;52.742;13.650;2024-03-23T07:58:30;99868.75;;;18.94;41.60
18918;BME280;9591;52.742;13.650;2024-03-23T08:01:18;99869.72;;;18.82;41.34
18918;BME280;9591;52.742;13.650;2024-03-23T08:04:03;99867.72;;;19.18;40.88
18918;BME280;9591;52.742;13.650;2024-03-23T08:06:52;99863.38;;;19.06;40.17
18918;BME280;9591;52.742;13.650;2024-03-23T08:09:37;99864.06;;;19.08;40.62
18918;BME280;9591;52.742;13.650;2024-03-23T08:12:22;99868.31;;;19.21;40.93
18918;BME280;9591;52.742;13.650;2024-03-23T08:15:12;99860.69;;;18.94;41.05
18918;BME280;9591;52.742;13.650;2024-03-23T08:17:57;99856.44;;;19.35;40.53
18918;BME280;9591;52.742;13.650;2024-03-23T08:20:45;99862.16;;;18.98;41.15
18918;BME280;9591;52.742;13.650;2024-03-23T08:23:30;99851.13;;;19.13;40.93
18918;BME280;9591;52.742;13.650;2024-03-23T08:26:18;99839.38;;;19.36;40.57
18918;BME280;9591;52.742;13.650;2024-03-23T08:29:03;99842.28;;;19.01;41.38
18918;BME280;9591;52.742;13.650;2024-03-23T08:31:56;99846.81;;;18.78;42.30
18918;BME280;9591;52.742;13.650;2024-03-23T08:34:41;99847.53;;;18.91;42.27
18918;BME280;9591;52.742;13.650;2024-03-23T08:37:29;99845.75;;;19.13;40.97
18918;BME280;9591;52.742;13.650;2024-03-23T08:40:15;99845.22;;;18.76;41.07
18918;BME280;9591;52.742;13.650;2024-03-23T08:43:03;99842.09;;;18.02;42.51
18918;BME280;9591;52.742;13.650;2024-03-23T08:45:48;99837.19;;;17.96;42.88
18918;BME280;9591;52.742;13.650;2024-03-23T08:48:39;99842.50;;;17.26;43.93
18918;BME280;9591;52.742;13.650;2024-03-23T08:51:23;99841.22;;;17.19;44.01
18918;BME280;9591;52.742;13.650;2024-03-23T08:54:13;99833.63;;;17.36;43.37
18918;BME280;9591;52.742;13.650;2024-03-23T08:56:58;99842.84;;;16.47;45.65
18918;BME280;9591;52.742;13.650;2024-03-23T08:59:47;99842.41;;;16.78;44.57
18918;BME280;9591;52.742;13.650;2024-03-23T09:02:32;99844.69;;;16.33;45.40
18918;BME280;9591;52.742;13.650;2024-03-23T09:05:20;99841.28;;;16.31;45.37
18918;BME280;9591;52.742;13.650;2024-03-23T09:08:06;99839.13;;;16.36;44.70
18918;BME280;9591;52.742;13.650;2024-03-23T09:10:53;99843.94;;;16.19;45.49
18918;BME280;9591;52.742;13.650;2024-03-23T09:13:38;99852.03;;;16.68;43.76
18918;BME280;9591;52.742;13.650;2024-03-23T09:16:27;99857.75;;;17.00;43.40
18918;BME280;9591;52.742;13.650;2024-03-23T09:19:11;99845.69;;;17.31;42.35
18918;BME280;9591;52.742;13.650;2024-03-23T09:22:01;99847.13;;;17.59;41.86
18918;BME280;9591;52.742;13.650;2024-03-23T09:24:47;99842.19;;;17.42;41.84
18918;BME280;9591;52.742;13.650;2024-03-23T09:27:33;99841.44;;;17.87;41.58
18918;BME280;9591;52.742;13.650;2024-03-23T09:30:18;99842.50;;;17.61;42.13
18918;BME280;9591;52.742;13.650;2024-03-23T09:33:05;99838.09;;;17.73;41.78
18918;BME280;9591;52.742;13.650;2024-03-23T09:35:49;99848.16;;;17.93;41.55
18918;BME280;9591;52.742;13.650;2024-03-23T09:38:45;99836.97;;;17.99;41.50
18918;BME280;9591;52.742;13.650;2024-03-23T09:41:30;99842.81;;;17.69;42.01
18918;BME280;9591;52.742;13.650;2024-03-23T09:44:17;99847.66;;;16.67;43.49
18918;BME280;9591;52.742;13.650;2024-03-23T09:47:02;99839.00;;;17.13;42.82
18918;BME280;9591;52.742;13.650;2024-03-23T09:49:48;99843.75;;;16.96;43.12
18918;BME280;9591;52.742;13.650;2024-03-23T09:52:33;99837.31;;;16.24;43.77
18918;BME280;9591;52.742;13.650;2024-03-23T09:55:20;99837.59;;;16.70;43.27
18918;BME280;9591;52.742;13.650;2024-03-23T09:58:06;99799.53;;;16.54;43.04
18918;BME280;9591;52.742;13.650;2024-03-23T10:00:54;99838.34;;;16.73;43.73
18918;BME280;9591;52.742;13.650;2024-03-23T10:03:47;99843.84;;;17.31;42.67
18918;BME280;9591;52.742;13.650;2024-03-23T10:06:33;99838.81;;;16.41;44.33
18918;BME280;9591;52.742;13.650;2024-03-23T10:09:27;99861.47;;;16.23;44.64
18918;BME280;9591;52.742;13.650;2024-03-23T10:12:16;99860.16;;;16.54;43.40
18918;BME280;9591;52.742;13.650;2024-03-23T10:15:18;99872.34;;;16.58;43.36
18918;BME280;9591;52.742;13.650;2024-03-23T10:18:17;99876.84;;;16.19;43.47
18918;BME280;9591;52.742;13.650;2024-03-23T10:21:10;99869.53;;;15.83;44.33
18918;BME280;9591;52.742;13.650;2024-03-23T10:23:55;99867.88;;;16.33;43.44
18918;BME280;9591;52.742;13.650;2024-03-23T10:26:41;99890.31;;;16.56;43.07
18918;BME280;9591;52.742;13.650;2024-03-23T10:29:27;99891.44;;;17.15;41.70
18918;BME280;9591;52.742;13.650;2024-03-23T10:32:14;99897.78;;;17.01;42.28
18918;BME280;9591;52.742;13.650;2024-03-23T10:35:14;99894.09;;;17.15;42.36
18918;BME280;9591;52.742;13.650;2024-03-23T10:38:00;99891.16;;;17.31;42.18
18918;BME280;9591;52.742;13.650;2024-03-23T10:40:45;99885.41;;;17.48;42.44
18918;BME280;9591;52.742;13.650;2024-03-23T10:43:33;99889.56;;;17.52;42.44
18918;BME280;9591;52.742;13.650;2024-03-23T10:46:19;99886.78;;;17.54;41.97
18918;BME280;9591;52.742;13.650;2024-03-23T10:49:08;99890.69;;;17.74;41.67
18918;BME280;9591;52.742;13.650;2024-03-23T10:51:53;99890.44;;;17.77;41.81
18918;BME280;9591;52.742;13.650;2024-03-23T10:54:41;99891.69;;;17.84;41.57
18918;BME280;9591;52.742;13.650;2024-03-23T10:57:37;99899.31;;;18.01;40.93
18918;BME280;9591;52.742;13.650;2024-03-23T11:00:26;99894.09;;;17.76;41.50
18918;BME280;9591;52.742;13.650;2024-03-23T11:03:31;99901.16;;;17.16;42.00
18918;BME280;9591;52.742;13.650;2024-03-23T11:06:39;99890.88;;;15.83;42.98
18918;BME280;9591;52.742;13.650;2024-03-23T11:09:41;99884.66;;;17.22;40.59
18918;BME280;9591;52.742;13.650;2024-03-23T11:12:35;99883.09;;;17.67;40.92
18918;BME280;9591;52.742;13.650;2024-03-23T11:15:23;99881.28;;;17.68;40.72
18918;BME280;9591;52.742;13.650;2024-03-23T11:18:08;99887.97;;;17.97;40.80
18918;BME280;9591;52.742;13.650;2024-03-23T11:20:57;99897.69;;;18.33;39.71
18918;BME280;9591;52.742;13.650;2024-03-23T11:23:43;99904.28;;;18.52;39.78
18918;BME280;9591;52.742;13.650;2024-03-23T11:26:29;99907.16;;;18.15;40.79
18918;BME280;9591;52.742;13.650;2024-03-23T11:29:15;99917.31;;;17.99;41.08
18918;BME280;9591;52.742;13.650;2024-03-23T11:32:02;99900.88;;;18.50;40.37
18918;BME280;9591;52.742;13.650;2024-03-23T11:34:51;99895.44;;;18.62;39.88
18918;BME280;9591;52.742;13.650;2024-03-23T11:37:39;99906.19;;;18.27;39.63
18918;BME280;9591;52.742;13.650;2024-03-23T11:40:24;99897.75;;;18.10;40.23
18918;BME280;9591;52.742;13.650;2024-03-23T11:43:13;99896.47;;;18.38;41.22
18918;BME280;9591;52.742;13.650;2024-03-23T11:46:22;99888.47;;;18.60;40.96
18918;BME280;9591;52.742;13.650;2024-03-23T11:49:19;99900.34;;;18.91;39.60
18918;BME280;9591;52.742;13.650;2024-03-23T11:52:06;99909.28;;;18.56;40.19
18918;BME280;9591;52.742;13.650;2024-03-23T11:55:03;99906.41;;;18.71;39.55
18918;BME280;9591;52.742;13.650;2024-03-23T11:57:49;99906.78;;;18.88;40.31
18918;BME280;9591;52.742;13.650;2024-03-23T12:00:35;99907.53;;;19.02;39.84
18918;BME280;9591;52.742;13.650;2024-03-23T12:03:20;99914.19;;;19.18;39.14
18918;BME280;9591;52.742;13.650;2024-03-23T12:06:10;99917.94;;;18.60;40.32
18918;BME280;9591;52.742;13.650;2024-03-23T12:09:05;99918.28;;;18.44;40.00
18918;BME280;9591;52.742;13.650;2024-03-23T12:11:55;99917.31;;;18.45;39.62
18918;BME280;9591;52.742;13.650;2024-03-23T12:14:40;99911.69;;;18.94;39.03
18918;BME280;9591;52.742;13.650;2024-03-23T12:17:26;99913.66;;;18.46;40.09
18918;BME280;9591;52.742;13.650;2024-03-23T12:20:10;99905.56;;;19.04;40.57
18918;BME280;9591;52.742;13.650;2024-03-23T12:23:12;99915.34;;;18.36;41.69
18918;BME280;9591;52.742;13.650;2024-03-23T12:26:00;99911.75;;;18.02;42.12
18918;BME280;9591;52.742;13.650;2024-03-23T12:28:48;99918.00;;;18.14;41.87
18918;BME280;9591;52.742;13.650;2024-03-23T12:31:33;99908.75;;;18.18;42.09
18918;BME280;9591;52.742;13.650;2024-03-23T12:34:22;99908.75;;;18.97;40.63
18918;BME280;9591;52.742;13.650;2024-03-23T12:37:07;99905.38;;;17.92;42.52
18918;BME280;9591;52.742;13.650;2024-03-23T12:40:00;99902.84;;;18.59;40.79
18918;BME280;9591;52.742;13.650;2024-03-23T12:43:11;99898.56;;;18.45;42.16
18918;BME280;9591;52.742;13.650;2024-03-23T12:45:58;99900.16;;;19.26;40.51
18918;BME280;9591;52.742;13.650;2024-03-23T12:48:46;99885.97;;;19.46;39.54
18918;BME280;9591;52.742;13.650;2024-03-23T12:51:32;99882.47;;;19.12;39.64
18918;BME280;9591;52.742;13.650;2024-03-23T12:54:17;99889.66;;;19.23;40.31
18918;BME280;9591;52.742;13.650;2024-03-23T12:57:03;99886.56;;;18.84;41.35
18918;BME280;9591;52.742;13.650;2024-03-23T12:59:48;99884.38;;;19.44;40.51
18918;BME280;9591;52.742;13.650;2024-03-23T13:02:38;99882.66;;;18.66;42.35
18918;BME280;9591;52.742;13.650;2024-03-23T13:05:23;99885.13;;;18.34;43.58
18918;BME280;9591;52.742;13.650;2024-03-23T13:08:09;99892.59;;;18.53;43.12
18918;BME280;9591;52.742;13.650;2024-03-23T13:10:54;99896.06;;;18.77;43.52
18918;BME280;9591;52.742;13.650;2024-03-23T13:13:39;99894.28;;;18.43;44.20
18918;BME280;9591;52.742;13.650;2024-03-23T13:16:24;99896.75;;;18.57;43.28
18918;BME280;9591;52.742;13.650;2024-03-23T13:19:16;99890.09;;;18.74;42.82
18918;BME280;9591;52.742;13.650;2024-03-23T13:22:05;99876.25;;;19.12;41.61
18918;BME280;9591;52.742;13.650;2024-03-23T13:24:51;99882.22;;;18.48;43.11
18918;BME280;9591;52.742;13.650;2024-03-23T13:27:36;99889.38;;;17.43;44.15
18918;BME280;9591;52.742;13.650;2024-03-23T13:30:22;99890.56;;;18.79;42.84
18918;BME280;9591;52.742;13.650;2024-03-23T13:33:32;99885.97;;;19.57;41.60
18918;BME280;9591;52.742;13.650;2024-03-23T13:36:24;99885.38;;;20.27;39.86
18918;BME280;9591;52.742;13.650;2024-03-23T13:39:09;99900.19;;;18.70;43.02
18918;BME280;9591;52.742;13.650;2024-03-23T13:41:58;99901.66;;;18.63;42.49
18918;BME280;9591;52.742;13.650;2024-03-23T13:44:44;99894.09;;;18.68;41.31
18918;BME280;9591;52.742;13.650;2024-03-23T13:47:29;99894.78;;;18.48;40.97
18918;BME280;9591;52.742;13.650;2024-03-23T13:50:14;99887.00;;;19.12;41.41
18918;BME280;9591;52.742;13.650;2024-03-23T13:53:03;99886.72;;;18.37;41.45
18918;BME280;9591;52.742;13.650;2024-03-23T13:55:55;99894.34;;;18.87;41.26
18918;BME280;9591;52.742;13.650;2024-03-23T13:58:39;99896.56;;;18.82;40.87
18918;BME280;9591;52.742;13.650;2024-03-23T14:01:31;99898.00;;;18.07;40.94
18918;BME280;9591;52.742;13.650;2024-03-23T14:04:16;99900.53;;;19.10;40.52
18918;BME280;9591;52.742;13.650;2024-03-23T14:07:19;99894.72;;;18.83;41.32
18918;BME280;9591;52.742;13.650;2024-03-23T14:10:07;99888.88;;;18.89;41.17
18918;BME280;9591;52.742;13.650;2024-03-23T14:12:54;99898.50;;;18.69;41.44
18918;BME280;9591;52.742;13.650;2024-03-23T14:15:40;99917.88;;;18.73;41.38
18918;BME280;9591;52.742;13.650;2024-03-23T14:18:28;99935.66;;;16.83;46.13
18918;BME280;9591;52.742;13.650;2024-03-23T14:21:14;99944.00;;;16.78;43.47
18918;BME280;9591;52.742;13.650;2024-03-23T14:24:00;99924.19;;;17.43;41.89
18918;BME280;9591;52.742;13.650;2024-03-23T14:26:49;99926.38;;;18.20;40.33
18918;BME280;9591;52.742;13.650;2024-03-23T14:29:37;99946.84;;;18.10;40.78
18918;BME280;9591;52.742;13.650;2024-03-23T14:32:23;99956.66;;;17.75;41.30
18918;BME280;9591;52.742;13.650;2024-03-23T14:35:09;99956.75;;;17.36;42.44
18918;BME280;9591;52.742;13.650;2024-03-23T14:37:54;99931.63;;;18.11;40.88
18918;BME280;9591;52.742;13.650;2024-03-23T14:40:43;99933.00;;;18.27;40.32
18918;BME280;9591;52.742;13.650;2024-03-23T14:43:29;99939.28;;;18.04;40.51
18918;BME280;9591;52.742;13.650;2024-03-23T14:46:16;99946.28;;;17.94;40.62
18918;BME280;9591;52.742;13.650;2024-03-23T14:49:01;99945.91;;;17.14;41.21
18918;BME280;9591;52.742;13.650;2024-03-23T14:51:49;99951.25;;;16.51;42.54
18918;BME280;9591;52.742;13.650;2024-03-23T14:54:34;99953.41;;;16.96;42.04
18918;BME280;9591;52.742;13.650;2024-03-23T14:57:23;99959.28;;;17.01;42.27
18918;BME280;9591;52.742;13.650;2024-03-23T15:00:12;99951.59;;;16.71;43.03
18918;BME280;9591;52.742;13.650;2024-03-23T15:02:59;99946.03;;;17.36;42.06
18918;BME280;9591;52.742;13.650;2024-03-23T15:05:55;99944.69;;;17.67;41.68
18918;BME280;9591;52.742;13.650;2024-03-23T15:08:44;99935.22;;;17.75;41.26
18918;BME280;9591;52.742;13.650;2024-03-23T15:11:29;99945.09;;;17.61;40.83
18918;BME280;9591;52.742;13.650;2024-03-23T15:14:17;99946.53;;;17.18;41.12
18918;BME280;9591;52.742;13.650;2024-03-23T15:17:04;99957.06;;;16.95;42.13
18918;BME280;9591;52.742;13.650;2024-03-23T15:19:54;99946.91;;;16.75;41.82
18918;BME280;9591;52.742;13.650;2024-03-23T15:22:42;99937.03;;;17.14;41.38
18918;BME280;9591;52.742;13.650;2024-03-23T15:25:27;99930.75;;;16.89;41.52
18918;BME280;9591;52.742;13.650;2024-03-23T15:28:12;99931.72;;;17.61;40.86
18918;BME280;9591;52.742;13.650;2024-03-23T15:30:58;99926.56;;;17.71;40.59
18918;BME280;9591;52.742;13.650;2024-03-23T15:33:48;99927.25;;;17.49;41.39
18918;BME280;9591;52.742;13.650;2024-03-23T15:36:33;99910.13;;;17.52;41.28